createdAt,value
2017-10-03T00:00:52.640Z,0
2017-10-03T00:02:02.587Z,0
2017-10-03T00:03:12.856Z,0
2017-10-03T00:04:23.126Z,0
2017-10-03T00:05:33.401Z,0
2017-10-03T00:06:43.673Z,0
2017-10-03T00:07:53.945Z,0
2017-10-03T00:09:04.213Z,0
2017-10-03T00:10:14.163Z,0
2017-10-03T00:11:24.428Z,0
2017-10-03T00:12:34.694Z,0
2017-10-03T00:13:44.659Z,0
2017-10-03T00:14:54.609Z,0
2017-10-03T00:16:04.882Z,0
2017-10-03T00:17:14.828Z,0
2017-10-03T00:18:25.105Z,0
2017-10-03T00:19:35.379Z,0
2017-10-03T00:20:45.648Z,0
2017-10-03T00:21:55.601Z,0
2017-10-03T00:23:05.882Z,0
2017-10-03T00:24:15.834Z,0
2017-10-03T00:25:26.106Z,0
2017-10-03T00:26:36.383Z,0
2017-10-03T00:27:46.648Z,0
2017-10-03T00:28:56.915Z,0
2017-10-03T00:30:07.185Z,0
2017-10-03T00:31:17.132Z,0
2017-10-03T00:32:27.399Z,0
2017-10-03T00:33:37.345Z,0
2017-10-03T00:34:47.616Z,0
2017-10-03T00:35:57.890Z,0
2017-10-03T00:37:08.156Z,0
2017-10-03T00:38:18.428Z,0
2017-10-03T00:39:28.703Z,0
2017-10-03T00:40:38.976Z,0
2017-10-03T00:41:48.927Z,0
2017-10-03T00:42:58.556Z,0
2017-10-03T00:44:08.183Z,0
2017-10-03T00:45:18.455Z,0
2017-10-03T00:46:28.414Z,0
2017-10-03T00:47:38.369Z,0
2017-10-03T00:48:48.639Z,0
2017-10-03T00:49:58.587Z,0
2017-10-03T00:51:08.213Z,0
2017-10-03T00:52:18.481Z,0
2017-10-03T00:53:28.424Z,0
2017-10-03T00:54:38.055Z,0
2017-10-03T00:55:48.003Z,0
2017-10-03T00:56:57.954Z,0
2017-10-03T00:58:07.901Z,0
2017-10-03T00:59:17.845Z,0
2017-10-03T01:00:28.118Z,0
2017-10-03T01:01:38.075Z,0
2017-10-03T01:02:48.026Z,0
2017-10-03T01:03:58.291Z,0
2017-10-03T01:05:08.240Z,0
2017-10-03T01:06:18.189Z,0
2017-10-03T01:07:28.455Z,0
2017-10-03T01:08:38.735Z,0
2017-10-03T01:09:49.003Z,0
2017-10-03T01:10:59.272Z,0
2017-10-03T01:12:09.540Z,0
2017-10-03T01:13:19.806Z,0
2017-10-03T01:14:30.076Z,0
2017-10-03T01:15:40.031Z,0
2017-10-03T01:16:50.297Z,0
2017-10-03T01:17:59.607Z,0
2017-10-03T01:19:09.561Z,0
2017-10-03T01:20:19.514Z,0
2017-10-03T01:21:29.801Z,0
2017-10-03T01:22:39.746Z,0
2017-10-03T01:23:50.080Z,0
2017-10-03T01:25:00.032Z,0
2017-10-03T01:26:09.660Z,0
2017-10-03T01:27:19.287Z,0
2017-10-03T01:28:28.594Z,0
2017-10-03T01:29:38.542Z,0
2017-10-03T01:30:48.820Z,0
2017-10-03T01:31:58.765Z,0
2017-10-03T01:33:08.722Z,0
2017-10-03T01:34:18.347Z,0
2017-10-03T01:35:28.624Z,0
2017-10-03T01:36:38.578Z,0
2017-10-03T01:37:48.848Z,0
2017-10-03T01:38:58.797Z,0
2017-10-03T01:40:09.088Z,0
2017-10-03T01:41:19.038Z,0
2017-10-03T01:42:28.985Z,0
2017-10-03T01:43:39.281Z,0
2017-10-03T01:44:49.551Z,0
2017-10-03T01:45:59.501Z,0
2017-10-03T01:47:09.771Z,0
2017-10-03T01:48:19.724Z,0
2017-10-03T01:49:30.002Z,0
2017-10-03T01:50:39.630Z,0
2017-10-03T01:51:49.579Z,0
2017-10-03T01:52:59.850Z,0
2017-10-03T01:54:09.484Z,0
2017-10-03T01:55:19.755Z,0
2017-10-03T01:56:29.706Z,0
2017-10-03T01:57:39.992Z,0
2017-10-03T01:58:50.263Z,0
2017-10-03T02:00:00.532Z,0
2017-10-03T02:01:10.808Z,0
2017-10-03T02:02:21.074Z,0
2017-10-03T02:03:30.701Z,0
2017-10-03T02:04:40.973Z,0
2017-10-03T02:05:51.257Z,0
2017-10-03T02:07:01.528Z,0
2017-10-03T02:08:11.157Z,0
2017-10-03T02:09:21.105Z,0
2017-10-03T02:10:31.050Z,0
2017-10-03T02:11:41.147Z,0
2017-10-03T02:12:51.094Z,0
2017-10-03T02:14:00.721Z,0
2017-10-03T02:15:10.997Z,0
2017-10-03T02:16:21.261Z,0
2017-10-03T02:17:31.536Z,0
2017-10-03T02:18:41.804Z,0
2017-10-03T02:19:52.116Z,0
2017-10-03T02:21:01.749Z,0
2017-10-03T02:22:12.022Z,0
2017-10-03T02:23:22.293Z,0
2017-10-03T02:24:32.563Z,0
2017-10-03T02:25:42.831Z,0
2017-10-03T02:26:52.780Z,0
2017-10-03T02:28:03.045Z,0
2017-10-03T02:29:13.331Z,0
2017-10-03T02:30:23.617Z,0
2017-10-03T02:31:33.892Z,0
2017-10-03T02:32:44.159Z,0
2017-10-03T02:33:53.786Z,0
2017-10-03T02:35:03.743Z,0
2017-10-03T02:36:14.026Z,0
2017-10-03T02:37:24.298Z,0
2017-10-03T02:38:34.241Z,0
2017-10-03T02:39:44.194Z,0
2017-10-03T02:40:54.153Z,0
2017-10-03T02:42:04.430Z,0
2017-10-03T02:43:14.378Z,0
2017-10-03T02:44:24.651Z,0
2017-10-03T02:45:34.934Z,0
2017-10-03T02:46:44.882Z,0
2017-10-03T02:47:54.831Z,0
2017-10-03T02:49:04.460Z,0
2017-10-03T02:50:14.088Z,0
2017-10-03T02:51:24.366Z,0
2017-10-03T02:52:34.641Z,0
2017-10-03T02:53:44.928Z,0
2017-10-03T02:54:54.877Z,0
2017-10-03T02:56:05.145Z,0
2017-10-03T02:57:15.420Z,0
2017-10-03T02:58:25.370Z,0
2017-10-03T02:59:35.315Z,0
2017-10-03T03:00:45.589Z,0
2017-10-03T03:01:55.547Z,0
2017-10-03T03:03:05.813Z,0
2017-10-03T03:04:16.077Z,0
2017-10-03T03:05:26.347Z,0
2017-10-03T03:06:36.620Z,0
2017-10-03T03:07:46.573Z,0
2017-10-03T03:08:56.518Z,0
2017-10-03T03:10:06.790Z,0
2017-10-03T03:11:16.734Z,0
2017-10-03T03:12:27.005Z,0
2017-10-03T03:13:36.978Z,0
2017-10-03T03:14:46.932Z,0
2017-10-03T03:15:56.875Z,0
2017-10-03T03:17:06.830Z,0
2017-10-03T03:18:16.785Z,0
2017-10-03T03:19:27.053Z,0
2017-10-03T03:20:37.318Z,0
2017-10-03T03:21:47.275Z,0
2017-10-03T03:22:57.225Z,0
2017-10-03T03:24:07.175Z,0
2017-10-03T03:25:17.453Z,0
2017-10-03T03:26:27.724Z,0
2017-10-03T03:27:37.992Z,0
2017-10-03T03:28:47.943Z,0
2017-10-03T03:29:57.887Z,0
2017-10-03T03:31:07.516Z,0
2017-10-03T03:32:17.140Z,0
2017-10-03T03:33:27.090Z,0
2017-10-03T03:34:37.389Z,0
2017-10-03T03:35:47.661Z,0
2017-10-03T03:36:57.933Z,0
2017-10-03T03:38:07.882Z,0
2017-10-03T03:39:17.510Z,0
2017-10-03T03:40:27.455Z,0
2017-10-03T03:41:37.404Z,0
2017-10-03T03:42:47.349Z,0
2017-10-03T03:43:57.623Z,0
2017-10-03T03:45:07.575Z,0
2017-10-03T03:46:17.847Z,0
2017-10-03T03:47:28.141Z,0
2017-10-03T03:48:38.089Z,0
2017-10-03T03:49:48.359Z,0
2017-10-03T03:50:58.306Z,0
2017-10-03T03:52:08.581Z,0
2017-10-03T03:53:18.846Z,0
2017-10-03T03:54:29.110Z,0
2017-10-03T03:55:39.378Z,0
2017-10-03T03:56:49.653Z,0
2017-10-03T03:57:59.277Z,0
2017-10-03T03:59:08.905Z,0
2017-10-03T04:00:18.848Z,0
2017-10-03T04:01:28.474Z,0
2017-10-03T04:02:38.423Z,0
2017-10-03T04:03:48.704Z,0
2017-10-03T04:04:58.650Z,0
2017-10-03T04:06:07.958Z,0
2017-10-03T04:07:18.228Z,0
2017-10-03T04:08:28.498Z,0
2017-10-03T04:09:38.763Z,0
2017-10-03T04:10:49.031Z,0
2017-10-03T04:11:58.978Z,0
2017-10-03T04:13:08.927Z,0
2017-10-03T04:14:19.199Z,0
2017-10-03T04:15:29.147Z,0
2017-10-03T04:16:39.101Z,0
2017-10-03T04:17:49.364Z,0
2017-10-03T04:18:58.985Z,0
2017-10-03T04:20:08.934Z,0
2017-10-03T04:21:18.563Z,0
2017-10-03T04:22:28.512Z,0
2017-10-03T04:23:38.805Z,0
2017-10-03T04:24:48.747Z,0
2017-10-03T04:25:58.698Z,0
2017-10-03T04:27:08.322Z,0
2017-10-03T04:28:18.267Z,0
2017-10-03T04:29:28.536Z,0
2017-10-03T04:30:38.493Z,0
2017-10-03T04:31:48.785Z,0
2017-10-03T04:32:58.731Z,0
2017-10-03T04:34:08.678Z,0
2017-10-03T04:35:18.627Z,0
2017-10-03T04:36:28.571Z,0
2017-10-03T04:37:38.839Z,0
2017-10-03T04:38:48.784Z,0
2017-10-03T04:39:59.052Z,0
2017-10-03T04:41:09.322Z,0
2017-10-03T04:42:19.593Z,0
2017-10-03T04:43:29.866Z,0
2017-10-03T04:44:40.139Z,0
2017-10-03T04:45:50.097Z,0
2017-10-03T04:47:00.043Z,0
2017-10-03T04:48:09.993Z,0
2017-10-03T04:49:19.941Z,0
2017-10-03T04:50:30.246Z,0
2017-10-03T04:51:40.528Z,0
2017-10-03T04:52:50.498Z,0
2017-10-03T04:54:00.448Z,0
2017-10-03T04:55:10.406Z,0
2017-10-03T04:56:20.682Z,0
2017-10-03T04:57:30.629Z,0
2017-10-03T04:58:40.898Z,0
2017-10-03T04:59:50.844Z,0
2017-10-03T05:01:00.470Z,0
2017-10-03T05:02:10.416Z,0
2017-10-03T05:03:20.683Z,0
2017-10-03T05:04:30.946Z,0
2017-10-03T05:05:40.892Z,0
2017-10-03T05:06:51.168Z,0
2017-10-03T05:08:01.122Z,0
2017-10-03T05:09:11.074Z,0
2017-10-03T05:10:21.027Z,0
2017-10-03T05:11:31.299Z,0
2017-10-03T05:12:40.925Z,0
2017-10-03T05:13:50.870Z,0
2017-10-03T05:15:00.493Z,0
2017-10-03T05:16:10.767Z,0
2017-10-03T05:17:21.043Z,0
2017-10-03T05:18:30.348Z,0
2017-10-03T05:19:40.614Z,0
2017-10-03T05:20:50.572Z,0
2017-10-03T05:22:00.521Z,0
2017-10-03T05:23:10.798Z,5
2017-10-03T05:24:21.079Z,5
2017-10-03T05:25:30.703Z,5
2017-10-03T05:26:40.977Z,5
2017-10-03T05:27:51.260Z,5
2017-10-03T05:29:01.217Z,5
2017-10-03T05:30:11.175Z,5
2017-10-03T05:31:21.455Z,5
2017-10-03T05:32:31.406Z,5
2017-10-03T05:33:41.380Z,5
2017-10-03T05:34:51.649Z,5
2017-10-03T05:36:01.928Z,5
2017-10-03T05:37:12.211Z,5
2017-10-03T05:38:22.161Z,5
2017-10-03T05:39:32.441Z,5
2017-10-03T05:40:42.709Z,5
2017-10-03T05:41:52.694Z,5
2017-10-03T05:43:02.642Z,5
2017-10-03T05:44:12.917Z,5
2017-10-03T05:45:22.865Z,5
2017-10-03T05:46:33.138Z,5
2017-10-03T05:47:43.109Z,10
2017-10-03T05:48:53.055Z,10
2017-10-03T05:50:02.368Z,10
2017-10-03T05:51:12.325Z,10
2017-10-03T05:52:22.597Z,10
2017-10-03T05:53:32.545Z,10
2017-10-03T05:54:42.826Z,10
2017-10-03T05:55:52.455Z,10
2017-10-03T05:57:02.084Z,10
2017-10-03T05:58:12.042Z,10
2017-10-03T05:59:21.997Z,10
2017-10-03T06:00:32.267Z,10
2017-10-03T06:01:42.542Z,15
2017-10-03T06:02:52.817Z,15
2017-10-03T06:04:03.084Z,15
2017-10-03T06:05:13.355Z,15
2017-10-03T06:06:23.625Z,20
2017-10-03T06:07:33.578Z,20
2017-10-03T06:08:43.525Z,20
2017-10-03T06:09:53.154Z,25
2017-10-03T06:11:03.439Z,25
2017-10-03T06:12:13.714Z,25
2017-10-03T06:13:23.669Z,30
2017-10-03T06:14:33.935Z,30
2017-10-03T06:15:43.884Z,30
2017-10-03T06:16:53.834Z,35
2017-10-03T06:18:04.107Z,35
2017-10-03T06:19:13.741Z,35
2017-10-03T06:20:23.372Z,40
2017-10-03T06:21:33.658Z,40
2017-10-03T06:22:43.945Z,45
2017-10-03T06:23:53.573Z,50
2017-10-03T06:25:03.969Z,50
2017-10-03T06:26:13.359Z,55
2017-10-03T06:27:23.318Z,55
2017-10-03T06:28:33.415Z,55
2017-10-03T06:29:43.530Z,55
2017-10-03T06:34:42.340Z,60
2017-10-03T06:35:52.618Z,65
2017-10-03T06:37:02.566Z,70
2017-10-03T06:38:12.512Z,75
2017-10-03T06:39:22.155Z,75
2017-10-03T06:40:32.105Z,75
2017-10-03T06:41:42.205Z,75
2017-10-03T06:42:51.928Z,75
2017-10-03T06:44:01.641Z,80
2017-10-03T06:45:11.685Z,90
2017-10-03T06:46:22.049Z,90
2017-10-03T06:47:32.423Z,90
2017-10-03T06:48:42.473Z,90
2017-10-03T06:49:52.197Z,90
2017-10-03T06:51:01.917Z,100
2017-10-03T06:52:12.302Z,105
2017-10-03T06:53:22.355Z,110
2017-10-03T06:54:32.722Z,120
2017-10-03T06:55:43.105Z,110
2017-10-03T06:56:53.483Z,90
2017-10-03T06:58:03.541Z,85
2017-10-03T06:59:13.593Z,90
2017-10-03T07:00:23.632Z,95
2017-10-03T07:01:33.681Z,100
2017-10-03T07:02:44.069Z,105
2017-10-03T07:03:54.121Z,120
2017-10-03T07:05:04.087Z,135
2017-10-03T07:06:13.717Z,130
2017-10-03T07:07:24.006Z,130
2017-10-03T07:08:34.279Z,130
2017-10-03T07:09:44.226Z,125
2017-10-03T07:10:54.182Z,120
2017-10-03T07:12:04.455Z,110
2017-10-03T07:13:14.403Z,120
2017-10-03T07:14:24.679Z,130
2017-10-03T07:15:34.945Z,130
2017-10-03T07:16:45.224Z,135
2017-10-03T07:17:54.529Z,135
2017-10-03T07:19:04.041Z,135
2017-10-03T07:20:14.339Z,140
2017-10-03T07:21:24.607Z,145
2017-10-03T07:22:34.878Z,150
2017-10-03T07:23:44.982Z,150
2017-10-03T07:24:55.340Z,155
2017-10-03T07:26:05.377Z,155
2017-10-03T07:27:15.756Z,140
2017-10-03T07:28:25.795Z,135
2017-10-03T07:29:36.185Z,125
2017-10-03T07:30:47.477Z,125
2017-10-03T07:31:57.863Z,130
2017-10-03T07:33:08.320Z,130
2017-10-03T07:34:18.714Z,120
2017-10-03T07:35:29.082Z,120
2017-10-03T07:36:38.805Z,120
2017-10-03T07:37:48.860Z,120
2017-10-03T07:38:58.913Z,125
2017-10-03T07:40:08.963Z,125
2017-10-03T07:41:19.010Z,120
2017-10-03T07:42:29.067Z,110
2017-10-03T07:43:39.454Z,105
2017-10-03T07:44:49.841Z,105
2017-10-03T07:45:59.629Z,105
2017-10-03T07:47:09.674Z,115
2017-10-03T07:48:20.054Z,115
2017-10-03T07:49:30.088Z,115
2017-10-03T07:50:40.556Z,120
2017-10-03T07:51:51.039Z,145
2017-10-03T07:53:00.869Z,165
2017-10-03T07:54:11.011Z,180
2017-10-03T07:55:20.798Z,180
2017-10-03T07:56:30.861Z,195
2017-10-03T07:57:40.908Z,210
2017-10-03T07:58:51.290Z,200
2017-10-03T08:00:01.085Z,205
2017-10-03T08:01:11.561Z,195
2017-10-03T08:02:21.011Z,195
2017-10-03T08:03:31.133Z,195
2017-10-03T08:04:41.564Z,200
2017-10-03T08:05:51.937Z,180
2017-10-03T08:07:01.990Z,180
2017-10-03T08:08:11.712Z,190
2017-10-03T08:09:21.761Z,185
2017-10-03T08:10:31.821Z,185
2017-10-03T08:11:42.197Z,215
2017-10-03T08:12:52.564Z,235
2017-10-03T08:14:02.943Z,225
2017-10-03T08:15:13.323Z,220
2017-10-03T08:16:23.450Z,215
2017-10-03T08:17:33.605Z,195
2017-10-03T08:18:43.754Z,185
2017-10-03T08:19:54.249Z,185
2017-10-03T08:21:04.720Z,195
2017-10-03T08:22:14.530Z,205
2017-10-03T08:23:24.659Z,235
2017-10-03T08:24:35.133Z,265
2017-10-03T08:25:45.282Z,275
2017-10-03T08:26:55.440Z,290
2017-10-03T08:28:05.922Z,270
2017-10-03T08:29:16.399Z,235
2017-10-03T08:30:26.534Z,220
2017-10-03T08:31:37.003Z,180
2017-10-03T08:32:46.813Z,155
2017-10-03T08:33:56.953Z,170
2017-10-03T08:35:07.421Z,195
2017-10-03T08:36:17.549Z,195
2017-10-03T08:37:27.688Z,220
2017-10-03T08:38:38.703Z,250
2017-10-03T08:39:48.771Z,285
2017-10-03T08:40:58.902Z,290
2017-10-03T08:42:09.294Z,300
2017-10-03T08:43:19.677Z,290
2017-10-03T08:44:29.713Z,295
2017-10-03T08:45:40.089Z,295
2017-10-03T08:46:50.128Z,280
2017-10-03T08:48:00.191Z,270
2017-10-03T08:49:10.572Z,230
2017-10-03T08:50:20.946Z,200
2017-10-03T08:51:31.007Z,200
2017-10-03T08:52:41.059Z,215
2017-10-03T08:53:51.443Z,200
2017-10-03T08:55:01.495Z,185
2017-10-03T08:56:11.220Z,180
2017-10-03T08:57:21.272Z,180
2017-10-03T08:58:31.647Z,200
2017-10-03T08:59:42.093Z,225
2017-10-03T09:00:52.507Z,230
2017-10-03T09:02:02.894Z,230
2017-10-03T09:03:13.263Z,230
2017-10-03T09:04:23.317Z,235
2017-10-03T09:05:33.684Z,220
2017-10-03T09:06:44.063Z,195
2017-10-03T09:07:53.863Z,190
2017-10-03T09:09:04.251Z,200
2017-10-03T09:10:13.974Z,205
2017-10-03T09:11:23.701Z,210
2017-10-03T09:12:34.066Z,200
2017-10-03T09:13:44.445Z,190
2017-10-03T09:14:54.501Z,180
2017-10-03T09:16:04.551Z,180
2017-10-03T09:17:14.597Z,185
2017-10-03T09:18:24.658Z,175
2017-10-03T09:19:34.371Z,165
2017-10-03T09:20:44.410Z,170
2017-10-03T09:21:54.460Z,170
2017-10-03T09:23:04.824Z,180
2017-10-03T09:24:15.224Z,195
2017-10-03T09:25:25.288Z,205
2017-10-03T09:26:35.681Z,220
2017-10-03T09:27:45.079Z,210
2017-10-03T09:28:55.456Z,210
2017-10-03T09:30:05.839Z,210
2017-10-03T09:31:15.887Z,210
2017-10-03T09:32:26.270Z,225
2017-10-03T09:33:36.638Z,230
2017-10-03T09:34:46.683Z,245
2017-10-03T09:35:57.052Z,255
2017-10-03T09:37:07.421Z,270
2017-10-03T09:38:17.387Z,280
2017-10-03T09:39:27.657Z,305
2017-10-03T09:40:37.926Z,295
2017-10-03T09:41:47.554Z,315
2017-10-03T09:42:57.513Z,325
2017-10-03T09:44:07.470Z,325
2017-10-03T09:45:17.428Z,335
2017-10-03T09:46:27.386Z,345
2017-10-03T09:47:37.013Z,360
2017-10-03T09:48:46.967Z,370
2017-10-03T09:49:57.239Z,370
2017-10-03T09:51:07.520Z,375
2017-10-03T09:52:17.474Z,375
2017-10-03T09:53:27.423Z,370
2017-10-03T09:54:37.054Z,365
2017-10-03T09:55:47.009Z,355
2017-10-03T09:56:56.960Z,345
2017-10-03T09:58:07.235Z,335
2017-10-03T09:59:17.190Z,330
2017-10-03T10:00:27.471Z,335
2017-10-03T10:01:37.101Z,325
2017-10-03T10:02:47.407Z,325
2017-10-03T10:03:57.678Z,340
2017-10-03T10:05:07.737Z,355
2017-10-03T10:06:17.694Z,365
2017-10-03T10:07:27.007Z,380
2017-10-03T10:08:36.956Z,390
2017-10-03T10:09:46.910Z,405
2017-10-03T10:10:56.876Z,420
2017-10-03T10:12:07.149Z,425
2017-10-03T10:13:17.428Z,430
2017-10-03T10:14:27.400Z,440
2017-10-03T10:15:37.360Z,445
2017-10-03T10:16:49.632Z,460
2017-10-03T10:17:59.586Z,460
2017-10-03T10:19:09.220Z,455
2017-10-03T10:20:19.176Z,435
2017-10-03T10:21:29.451Z,425
2017-10-03T10:22:39.731Z,430
2017-10-03T10:23:49.693Z,430
2017-10-03T10:24:59.970Z,420
2017-10-03T10:26:09.964Z,400
2017-10-03T10:27:19.933Z,385
2017-10-03T10:28:29.884Z,375
2017-10-03T10:29:39.194Z,370
2017-10-03T10:30:49.150Z,375
2017-10-03T10:31:58.462Z,375
2017-10-03T10:33:08.734Z,380
2017-10-03T10:34:19.014Z,375
2017-10-03T10:35:29.292Z,370
2017-10-03T10:36:39.249Z,370
2017-10-03T10:37:49.524Z,365
2017-10-03T10:38:59.798Z,360
2017-10-03T10:40:09.430Z,360
2017-10-03T10:41:19.556Z,355
2017-10-03T10:42:29.209Z,355
2017-10-03T10:43:39.486Z,345
2017-10-03T10:44:48.795Z,345
2017-10-03T10:45:58.116Z,340
2017-10-03T10:47:08.393Z,345
2017-10-03T10:48:18.028Z,345
2017-10-03T10:49:27.976Z,345
2017-10-03T10:50:38.252Z,350
2017-10-03T10:51:47.882Z,350
2017-10-03T10:52:58.162Z,355
2017-10-03T10:54:08.152Z,355
2017-10-03T10:55:18.101Z,355
2017-10-03T10:56:28.379Z,350
2017-10-03T10:57:38.651Z,345
2017-10-03T10:58:48.404Z,340
2017-10-03T10:59:58.501Z,335
2017-10-03T11:01:08.467Z,325
2017-10-03T11:02:18.424Z,335
2017-10-03T11:03:28.377Z,385
2017-10-03T11:04:38.326Z,395
2017-10-03T11:05:48.603Z,475
2017-10-03T11:06:58.559Z,565
2017-10-03T11:08:08.837Z,585
2017-10-03T11:09:19.110Z,595
2017-10-03T11:10:29.400Z,675
2017-10-03T11:11:39.350Z,585
2017-10-03T11:12:49.309Z,515
2017-10-03T11:13:59.261Z,315
2017-10-03T11:15:09.538Z,265
2017-10-03T11:16:19.832Z,250
2017-10-03T11:17:29.494Z,280
2017-10-03T11:18:39.785Z,700
2017-10-03T11:19:50.150Z,700
2017-10-03T11:21:02.550Z,680
2017-10-03T11:22:12.183Z,545
2017-10-03T11:23:21.817Z,675
2017-10-03T11:24:31.775Z,280
2017-10-03T11:25:41.727Z,660
2017-10-03T11:26:52.014Z,645
2017-10-03T11:28:01.966Z,675
2017-10-03T11:29:11.925Z,640
2017-10-03T11:30:22.209Z,665
2017-10-03T11:31:32.509Z,680
2017-10-03T11:32:42.466Z,710
2017-10-03T11:33:52.760Z,740
2017-10-03T11:35:03.037Z,810
2017-10-03T11:36:12.675Z,905
2017-10-03T11:37:22.952Z,945
2017-10-03T11:38:32.590Z,785
2017-10-03T11:39:42.873Z,875
2017-10-03T11:40:53.160Z,785
2017-10-03T11:42:03.128Z,670
2017-10-03T11:43:13.410Z,680
2017-10-03T11:44:23.691Z,740
2017-10-03T11:45:33.980Z,750
2017-10-03T11:46:43.620Z,775
2017-10-03T11:47:53.278Z,805
2017-10-03T11:49:03.243Z,820
2017-10-03T11:50:13.202Z,845
2017-10-03T11:51:22.845Z,875
2017-10-03T11:52:33.127Z,880
2017-10-03T11:53:43.415Z,915
2017-10-03T11:54:53.387Z,560
2017-10-03T11:56:03.350Z,1005
2017-10-03T11:57:13.314Z,475
2017-10-03T11:58:23.598Z,365
2017-10-03T11:59:33.893Z,395
2017-10-03T12:00:44.182Z,550
2017-10-03T12:01:54.143Z,865
2017-10-03T12:03:04.430Z,820
2017-10-03T12:04:14.394Z,585
2017-10-03T12:05:24.674Z,585
2017-10-03T12:06:34.983Z,590
2017-10-03T12:07:45.274Z,695
2017-10-03T12:08:55.234Z,450
2017-10-03T12:10:04.874Z,445
2017-10-03T12:11:14.841Z,450
2017-10-03T12:12:25.129Z,455
2017-10-03T12:13:35.408Z,485
2017-10-03T12:14:45.688Z,460
2017-10-03T12:15:55.995Z,475
2017-10-03T12:17:05.650Z,475
2017-10-03T12:18:15.286Z,435
2017-10-03T12:19:25.564Z,390
2017-10-03T12:20:35.518Z,355
2017-10-03T12:21:45.523Z,330
2017-10-03T12:22:55.168Z,315
2017-10-03T12:24:05.153Z,375
2017-10-03T12:25:15.120Z,930
2017-10-03T12:26:25.411Z,1055
2017-10-03T12:27:35.364Z,1135
2017-10-03T12:28:45.645Z,1150
2017-10-03T12:29:55.600Z,1270
2017-10-03T12:31:05.558Z,880
2017-10-03T12:32:15.839Z,1090
2017-10-03T12:33:26.121Z,1110
2017-10-03T12:34:36.093Z,1180
2017-10-03T12:35:46.060Z,1325
2017-10-03T12:36:56.023Z,1220
2017-10-03T12:38:06.303Z,540
2017-10-03T12:39:16.293Z,490
2017-10-03T12:40:26.570Z,455
2017-10-03T12:41:36.849Z,420
2017-10-03T12:42:46.805Z,405
2017-10-03T12:43:56.770Z,405
2017-10-03T12:45:07.047Z,400
2017-10-03T12:46:17.329Z,380
2017-10-03T12:47:27.283Z,360
2017-10-03T12:48:36.919Z,350
2017-10-03T12:49:47.194Z,365
2017-10-03T12:50:56.506Z,385
2017-10-03T12:52:06.799Z,405
2017-10-03T12:53:17.091Z,390
2017-10-03T12:54:27.370Z,360
2017-10-03T12:55:37.651Z,350
2017-10-03T12:56:47.613Z,360
2017-10-03T12:57:57.570Z,320
2017-10-03T12:59:07.528Z,310
2017-10-03T13:00:17.813Z,305
2017-10-03T13:01:28.096Z,315
2017-10-03T13:02:38.380Z,295
2017-10-03T13:03:48.659Z,310
2017-10-03T13:04:58.615Z,330
2017-10-03T13:06:08.909Z,305
2017-10-03T13:07:19.181Z,320
2017-10-03T13:08:29.465Z,305
2017-10-03T13:09:39.854Z,285
2017-10-03T13:10:49.488Z,275
2017-10-03T13:11:59.124Z,270
2017-10-03T13:13:09.414Z,290
2017-10-03T13:14:19.689Z,320
2017-10-03T13:15:29.970Z,270
2017-10-03T13:16:40.245Z,295
2017-10-03T13:17:50.204Z,300
2017-10-03T13:19:00.157Z,310
2017-10-03T13:20:10.112Z,340
2017-10-03T13:21:20.391Z,355
2017-10-03T13:22:30.350Z,355
2017-10-03T13:23:40.624Z,475
2017-10-03T13:24:50.901Z,555
2017-10-03T13:26:00.532Z,550
2017-10-03T13:27:10.817Z,530
2017-10-03T13:28:21.111Z,305
2017-10-03T13:29:31.064Z,325
2017-10-03T13:30:41.345Z,505
2017-10-03T13:31:51.620Z,245
2017-10-03T13:33:01.253Z,225
2017-10-03T13:34:11.528Z,225
2017-10-03T13:35:21.484Z,235
2017-10-03T13:36:30.801Z,235
2017-10-03T13:37:41.078Z,245
2017-10-03T13:38:50.763Z,250
2017-10-03T13:40:00.717Z,255
2017-10-03T13:41:10.675Z,265
2017-10-03T13:42:20.959Z,300
2017-10-03T13:43:30.923Z,330
2017-10-03T13:44:41.202Z,340
2017-10-03T13:45:51.167Z,360
2017-10-03T13:47:01.114Z,375
2017-10-03T13:48:11.065Z,390
2017-10-03T13:49:21.338Z,505
2017-10-03T13:50:30.646Z,440
2017-10-03T13:51:40.923Z,430
2017-10-03T13:52:50.869Z,435
2017-10-03T13:54:01.141Z,455
2017-10-03T13:55:11.112Z,470
2017-10-03T13:56:21.385Z,510
2017-10-03T13:57:31.338Z,460
2017-10-03T13:58:41.614Z,405
2017-10-03T13:59:51.570Z,395
2017-10-03T14:01:01.845Z,390
2017-10-03T14:02:12.119Z,375
2017-10-03T14:03:22.397Z,350
2017-10-03T14:04:32.350Z,330
2017-10-03T14:05:42.630Z,320
2017-10-03T14:06:52.264Z,325
2017-10-03T14:08:01.571Z,320
2017-10-03T14:09:11.848Z,340
2017-10-03T14:10:21.807Z,360
2017-10-03T14:11:31.462Z,360
2017-10-03T14:12:41.730Z,430
2017-10-03T14:13:52.001Z,455
2017-10-03T14:15:01.956Z,440
2017-10-03T14:16:11.911Z,405
2017-10-03T14:17:21.864Z,350
2017-10-03T14:18:32.141Z,400
2017-10-03T14:19:42.409Z,325
2017-10-03T14:20:52.379Z,330
2017-10-03T14:22:02.341Z,315
2017-10-03T14:23:12.621Z,315
2017-10-03T14:24:22.906Z,340
2017-10-03T14:25:32.860Z,335
2017-10-03T14:26:42.815Z,340
2017-10-03T14:27:52.773Z,355
2017-10-03T14:29:02.413Z,345
2017-10-03T14:30:12.363Z,345
2017-10-03T14:31:22.318Z,445
2017-10-03T14:32:32.271Z,490
2017-10-03T14:33:41.262Z,475
2017-10-03T14:34:51.533Z,535
2017-10-03T14:36:01.486Z,555
2017-10-03T14:37:11.436Z,645
2017-10-03T14:38:21.708Z,570
2017-10-03T14:39:31.657Z,590
2017-10-03T14:40:41.935Z,645
2017-10-03T14:41:51.889Z,675
2017-10-03T14:43:01.516Z,620
2017-10-03T14:44:11.795Z,255
2017-10-03T14:45:21.755Z,245
2017-10-03T14:46:32.029Z,375
2017-10-03T14:47:42.311Z,310
2017-10-03T14:48:52.588Z,205
2017-10-03T14:50:02.541Z,175
2017-10-03T14:51:12.824Z,160
2017-10-03T14:52:23.107Z,160
2017-10-03T14:53:33.387Z,160
2017-10-03T14:54:43.341Z,175
2017-10-03T14:55:53.293Z,195
2017-10-03T14:57:03.565Z,170
2017-10-03T14:58:13.848Z,155
2017-10-03T14:59:23.827Z,190
2017-10-03T15:00:34.103Z,190
2017-10-03T15:01:44.385Z,155
2017-10-03T15:02:54.734Z,145
2017-10-03T15:04:05.011Z,130
2017-10-03T15:05:15.292Z,125
2017-10-03T15:06:25.255Z,140
2017-10-03T15:07:35.530Z,125
2017-10-03T15:08:45.804Z,130
2017-10-03T15:09:56.077Z,130
2017-10-03T15:11:06.362Z,125
2017-10-03T15:12:16.319Z,130
2017-10-03T15:13:26.271Z,120
2017-10-03T15:14:36.555Z,105
2017-10-03T15:15:46.829Z,100
2017-10-03T15:16:56.790Z,95
2017-10-03T15:18:06.892Z,90
2017-10-03T15:19:17.436Z,90
2017-10-03T15:20:27.890Z,95
2017-10-03T15:21:38.015Z,95
2017-10-03T15:22:48.469Z,95
2017-10-03T15:23:58.922Z,90
2017-10-03T15:25:09.049Z,90
2017-10-03T15:26:19.501Z,85
2017-10-03T15:27:29.956Z,85
2017-10-03T15:28:40.413Z,80
2017-10-03T15:29:50.900Z,80
2017-10-03T15:31:01.358Z,85
2017-10-03T15:32:11.145Z,90
2017-10-03T15:33:21.598Z,100
2017-10-03T15:34:32.052Z,105
2017-10-03T15:35:42.172Z,110
2017-10-03T15:36:52.625Z,115
2017-10-03T15:38:02.077Z,115
2017-10-03T15:39:12.533Z,115
2017-10-03T15:40:22.993Z,115
2017-10-03T15:41:33.447Z,115
2017-10-03T15:42:43.907Z,115
2017-10-03T15:43:54.023Z,105
2017-10-03T15:45:04.475Z,90
2017-10-03T15:46:14.596Z,80
2017-10-03T15:47:25.050Z,75
2017-10-03T15:48:35.230Z,75
2017-10-03T15:49:45.016Z,65
2017-10-03T15:50:55.163Z,65
2017-10-03T15:52:05.292Z,60
2017-10-03T15:53:15.412Z,60
2017-10-03T15:54:25.866Z,55
2017-10-03T15:55:36.317Z,55
2017-10-03T15:56:45.771Z,55
2017-10-03T15:57:56.225Z,50
2017-10-03T15:59:06.708Z,50
2017-10-03T16:00:17.165Z,45
2017-10-03T16:01:27.629Z,40
2017-10-03T16:02:37.747Z,35
2017-10-03T16:03:47.861Z,30
2017-10-03T16:04:57.982Z,30
2017-10-03T16:06:08.104Z,25
2017-10-03T16:07:18.553Z,25
2017-10-03T16:08:29.004Z,25
2017-10-03T16:09:39.129Z,25
2017-10-03T16:10:48.914Z,20
2017-10-03T16:11:58.368Z,20
2017-10-03T16:13:08.488Z,15
2017-10-03T16:14:18.613Z,15
2017-10-03T16:15:29.071Z,15
2017-10-03T16:16:38.853Z,15
2017-10-03T16:17:49.310Z,15
2017-10-03T16:18:59.761Z,15
2017-10-03T16:20:09.545Z,15
2017-10-03T16:21:19.997Z,15
2017-10-03T16:22:30.447Z,15
2017-10-03T16:23:40.566Z,15
2017-10-03T16:24:50.357Z,15
2017-10-03T16:26:00.140Z,15
2017-10-03T16:27:10.598Z,15
2017-10-03T16:28:21.055Z,15
2017-10-03T16:29:31.921Z,15
2017-10-03T16:30:42.415Z,15
2017-10-03T16:31:52.552Z,20
2017-10-03T16:33:02.335Z,20
2017-10-03T16:34:12.788Z,20
2017-10-03T16:35:23.244Z,20
2017-10-03T16:36:34.130Z,20
2017-10-03T16:37:44.590Z,15